Time;durP1;ratioP1;P1;durP2;ratioP2;P2;SDS_P1;SDS_P2;PMS_P1;PMS_P2;Temp;Humidity;BMP_temperature;BMP_pressure;BME280_temperature;BME280_humidity;BME280_pressure;Samples;Min_cycle;Max_cycle;Signal;HPM_P1;HPM_P2
2024/01/04 00:00:29;;;;;;;2.75;0.60;;;;;;;;;;5117597;28;20040;-73
2024/01/04 00:02:55;;;;;;;6.20;1.13;;;;;;;;;;5101776;28;20044;-69
2024/01/04 00:05:22;;;;;;;4.88;0.88;;;;;;;;;;5100329;28;20083;-70
2024/01/04 00:07:49;;;;;;;3.90;1.05;;;;;;;;;;5100393;28;20047;-70
2024/01/04 00:10:17;;;;;;;7.65;1.23;;;;;;;;;;5100579;28;20264;-71
2024/01/04 00:12:51;;;;;;;1.65;0.55;;;;;;;;;;5100367;28;20075;-69
2024/01/04 00:15:18;;;;;;;5.55;0.88;;;;;;;;;;5100694;28;20071;-71
2024/01/04 00:17:45;;;;;;;5.32;0.98;;;;;;;;;;5100218;28;20283;-77
2024/01/04 00:20:13;;;;;;;8.25;1.00;;;;;;;;;;5101070;28;20271;-70
2024/01/04 00:22:39;;;;;;;3.60;0.95;;;;;;;;;;5102433;28;20079;-75
2024/01/04 00:25:07;;;;;;;4.80;1.38;;;;;;;;;;5101769;28;20040;-76
2024/01/04 00:27:34;;;;;;;5.03;1.05;;;;;;;;;;5101962;28;20454;-76
2024/01/04 00:30:00;;;;;;;4.35;0.95;;;;;;;;;;5101941;28;20051;-80
2024/01/04 00:32:27;;;;;;;8.00;1.00;;;;;;;;;;5101810;28;20086;-77
2024/01/04 00:34:54;;;;;;;4.60;0.95;;;;;;;;;;5101777;28;20046;-81
2024/01/04 00:37:20;;;;;;;4.43;0.70;;;;;;;;;;5102280;28;20044;-75
2024/01/04 00:39:48;;;;;;;5.40;0.90;;;;;;;;;;5101677;28;20056;-72
2024/01/04 00:42:15;;;;;;;5.00;0.73;;;;;;;;;;5084768;28;20048;-79
2024/01/04 00:44:42;;;;;;;4.72;0.80;;;;;;;;;;5102645;28;20066;-75
2024/01/04 00:47:09;;;;;;;6.05;1.20;;;;;;;;;;5084536;28;20066;-75
2024/01/04 00:49:35;;;;;;;6.28;0.95;;;;;;;;;;5101842;28;20055;-74
2024/01/04 00:52:02;;;;;;;4.93;0.90;;;;;;;;;;5100736;28;20105;-74
2024/01/04 00:54:29;;;;;;;2.83;0.63;;;;;;;;;;5100440;28;20048;-77
2024/01/04 00:56:57;;;;;;;4.72;1.35;;;;;;;;;;5100870;28;20054;-73
2024/01/04 00:59:24;;;;;;;5.85;1.20;;;;;;;;;;5100918;28;20048;-76
2024/01/04 01:01:51;;;;;;;6.20;1.13;;;;;;;;;;5116706;28;20071;-82
2024/01/04 01:04:18;;;;;;;4.05;0.80;;;;;;;;;;5121270;28;20050;-84
2024/01/04 01:06:44;;;;;;;6.25;1.00;;;;;;;;;;5121345;28;20053;-84
2024/01/04 01:09:11;;;;;;;4.63;0.80;;;;;;;;;;5120533;28;20048;-77
2024/01/04 01:11:38;;;;;;;2.65;0.80;;;;;;;;;;5120752;28;20110;-79
2024/01/04 01:14:05;;;;;;;4.50;1.02;;;;;;;;;;5119739;28;20039;-77
2024/01/04 01:16:31;;;;;;;3.60;0.93;;;;;;;;;;5120376;28;20112;-78
2024/01/04 01:18:58;;;;;;;4.95;1.20;;;;;;;;;;5120088;28;20051;-74
2024/01/04 01:21:25;;;;;;;4.95;1.10;;;;;;;;;;5120533;28;20118;-76
2024/01/04 01:23:52;;;;;;;3.78;1.17;;;;;;;;;;5120397;28;20111;-72
2024/01/04 01:26:19;;;;;;;6.18;1.25;;;;;;;;;;5120776;28;20082;-76
2024/01/04 01:28:45;;;;;;;2.20;0.80;;;;;;;;;;5119958;28;20131;-78
2024/01/04 01:31:12;;;;;;;2.33;0.80;;;;;;;;;;5121150;28;20043;-78
2024/01/04 01:33:45;;;;;;;6.13;0.90;;;;;;;;;;5120604;28;20043;-72
2024/01/04 01:36:12;;;;;;;6.25;1.30;;;;;;;;;;5121096;28;20050;-76
2024/01/04 01:38:39;;;;;;;6.68;0.85;;;;;;;;;;5120141;28;20371;-73
2024/01/04 01:41:06;;;;;;;4.20;0.90;;;;;;;;;;5120852;28;20054;-77
2024/01/04 01:43:32;;;;;;;5.53;1.00;;;;;;;;;;5119757;28;20044;-75
2024/01/04 01:45:59;;;;;;;4.82;1.30;;;;;;;;;;5119654;28;20205;-73
2024/01/04 01:48:26;;;;;;;4.82;0.90;;;;;;;;;;5120237;28;20107;-75
2024/01/04 01:50:54;;;;;;;4.38;1.00;;;;;;;;;;5121171;28;20079;-75
2024/01/04 01:53:21;;;;;;;8.50;1.77;;;;;;;;;;5121655;28;20356;-77
2024/01/04 01:55:49;;;;;;;6.53;0.93;;;;;;;;;;5121370;28;20382;-77
2024/01/04 01:58:15;;;;;;;8.10;1.05;;;;;;;;;;5120875;28;20316;-75
2024/01/04 02:00:43;;;;;;;9.07;1.20;;;;;;;;;;5119324;28;20107;-74
2024/01/04 02:03:11;;;;;;;6.60;1.08;;;;;;;;;;5100532;28;20056;-75
2024/01/04 02:05:38;;;;;;;6.22;1.08;;;;;;;;;;5099952;28;20051;-78
2024/01/04 02:08:05;;;;;;;5.90;0.70;;;;;;;;;;5100157;28;20055;-77
2024/01/04 02:10:32;;;;;;;6.68;1.02;;;;;;;;;;5099858;28;20334;-76
2024/01/04 02:12:58;;;;;;;3.35;1.10;;;;;;;;;;5100191;28;20062;-75
2024/01/04 02:15:25;;;;;;;4.95;1.00;;;;;;;;;;5100217;28;20111;-75
2024/01/04 02:17:52;;;;;;;6.55;1.60;;;;;;;;;;5081930;28;20040;-70
2024/01/04 02:20:19;;;;;;;4.38;0.85;;;;;;;;;;5100102;28;20050;-73
2024/01/04 02:22:46;;;;;;;5.10;1.85;;;;;;;;;;5100343;28;20044;-71
2024/01/04 02:25:12;;;;;;;8.63;1.33;;;;;;;;;;5099335;28;20240;-72
2024/01/04 02:27:39;;;;;;;5.97;1.00;;;;;;;;;;5100034;28;20050;-70
2024/01/04 02:30:06;;;;;;;3.10;0.57;;;;;;;;;;5099545;28;20055;-69
2024/01/04 02:32:33;;;;;;;4.50;0.98;;;;;;;;;;5099545;28;20052;-74
2024/01/04 02:35:00;;;;;;;3.42;0.80;;;;;;;;;;5099280;28;20083;-70
2024/01/04 02:37:27;;;;;;;6.28;1.02;;;;;;;;;;5099436;28;20044;-70
2024/01/04 02:39:54;;;;;;;3.50;1.05;;;;;;;;;;5099903;28;20086;-70
2024/01/04 02:42:20;;;;;;;5.68;1.10;;;;;;;;;;5100427;28;20058;-75
2024/01/04 02:44:47;;;;;;;3.65;1.00;;;;;;;;;;5100048;28;20048;-70
2024/01/04 02:47:14;;;;;;;1.77;0.77;;;;;;;;;;5081825;28;20048;-70
2024/01/04 02:49:41;;;;;;;7.63;1.83;;;;;;;;;;5099492;28;20050;-74
2024/01/04 02:52:10;;;;;;;3.42;0.80;;;;;;;;;;5099507;28;20048;-70
2024/01/04 02:54:37;;;;;;;2.33;0.85;;;;;;;;;;5099376;28;20040;-73
2024/01/04 02:57:04;;;;;;;6.28;1.00;;;;;;;;;;5098922;28;20048;-71
2024/01/04 02:59:31;;;;;;;5.28;1.42;;;;;;;;;;5099048;28;20054;-70
2024/01/04 03:01:58;;;;;;;5.60;1.05;;;;;;;;;;5110832;28;20134;-75
2024/01/04 03:04:24;;;;;;;2.25;0.93;;;;;;;;;;5120949;28;20295;-70
2024/01/04 03:06:51;;;;;;;3.95;1.25;;;;;;;;;;5121090;28;20051;-70
2024/01/04 03:09:18;;;;;;;4.68;0.90;;;;;;;;;;5120571;28;20043;-71
2024/01/04 03:11:46;;;;;;;5.22;0.95;;;;;;;;;;5119371;28;20054;-73
2024/01/04 03:14:12;;;;;;;4.80;0.90;;;;;;;;;;5119250;28;20080;-69
2024/01/04 03:16:40;;;;;;;3.92;1.05;;;;;;;;;;5120285;28;20088;-70
2024/01/04 03:19:07;;;;;;;3.60;0.98;;;;;;;;;;5103926;28;20067;-71
2024/01/04 03:21:34;;;;;;;6.07;1.33;;;;;;;;;;5123820;28;20392;-71
2024/01/04 03:24:00;;;;;;;4.45;1.00;;;;;;;;;;5123254;28;20050;-70
2024/01/04 03:26:27;;;;;;;6.45;1.00;;;;;;;;;;5123910;28;20043;-69
2024/01/04 03:28:54;;;;;;;7.22;1.20;;;;;;;;;;5123714;28;20071;-70
2024/01/04 03:31:20;;;;;;;4.35;0.77;;;;;;;;;;5123565;28;20047;-73
2024/01/04 03:33:49;;;;;;;6.07;0.88;;;;;;;;;;5123521;28;20044;-70
2024/01/04 03:36:16;;;;;;;7.80;1.20;;;;;;;;;;5123661;28;20109;-73
2024/01/04 03:38:45;;;;;;;4.78;1.10;;;;;;;;;;5123584;28;20039;-70
2024/01/04 03:41:12;;;;;;;3.63;0.90;;;;;;;;;;5122897;28;20069;-72
2024/01/04 03:43:39;;;;;;;3.83;1.00;;;;;;;;;;5121182;28;20058;-70
2024/01/04 03:46:08;;;;;;;4.90;1.08;;;;;;;;;;5102940;28;20121;-77
2024/01/04 03:48:35;;;;;;;7.65;1.30;;;;;;;;;;5102732;28;20047;-70
2024/01/04 03:51:02;;;;;;;6.57;1.10;;;;;;;;;;5102967;28;20107;-72
2024/01/04 03:53:29;;;;;;;3.85;0.90;;;;;;;;;;5102737;28;20328;-74
2024/01/04 03:55:56;;;;;;;5.25;1.20;;;;;;;;;;5102724;28;20083;-70
2024/01/04 03:58:23;;;;;;;5.93;1.40;;;;;;;;;;5085760;28;20103;-70
2024/01/04 04:00:53;;;;;;;3.38;0.90;;;;;;;;;;5103227;28;20385;-69
2024/01/04 04:03:19;;;;;;;5.28;0.75;;;;;;;;;;5123503;28;20223;-74
2024/01/04 04:05:46;;;;;;;7.78;1.27;;;;;;;;;;5123681;28;20044;-72
2024/01/04 04:08:13;;;;;;;3.85;0.93;;;;;;;;;;5123696;28;20106;-70
2024/01/04 04:10:40;;;;;;;4.10;1.00;;;;;;;;;;5123383;28;20075;-71
2024/01/04 04:13:07;;;;;;;4.57;1.10;;;;;;;;;;5123363;28;20104;-78
2024/01/04 04:15:34;;;;;;;5.65;1.00;;;;;;;;;;5122774;28;20043;-77
2024/01/04 04:18:01;;;;;;;5.28;1.20;;;;;;;;;;5122936;28;20081;-72
2024/01/04 04:20:28;;;;;;;3.75;1.08;;;;;;;;;;5100836;28;20079;-75
2024/01/04 04:22:55;;;;;;;5.93;1.15;;;;;;;;;;5100908;28;20051;-72
2024/01/04 04:25:22;;;;;;;2.72;0.77;;;;;;;;;;5097471;28;20050;-75
2024/01/04 04:27:49;;;;;;;6.03;0.73;;;;;;;;;;5102149;28;20040;-70
2024/01/04 04:30:19;;;;;;;3.20;1.15;;;;;;;;;;5101068;28;20059;-69
2024/01/04 04:32:47;;;;;;;2.63;0.98;;;;;;;;;;5101743;28;20056;-70
2024/01/04 04:35:14;;;;;;;3.22;0.73;;;;;;;;;;5101931;28;20055;-70
2024/01/04 04:37:40;;;;;;;3.33;0.80;;;;;;;;;;5102141;28;20040;-70
2024/01/04 04:40:08;;;;;;;3.15;0.98;;;;;;;;;;5101331;28;20044;-71
2024/01/04 04:42:38;;;;;;;3.95;1.10;;;;;;;;;;5102286;28;20048;-81
2024/01/04 04:45:05;;;;;;;3.28;1.02;;;;;;;;;;5101453;28;20111;-71
2024/01/04 04:47:32;;;;;;;5.13;0.90;;;;;;;;;;5101858;28;20044;-70
2024/01/04 04:49:59;;;;;;;2.28;0.80;;;;;;;;;;5101324;28;20073;-72
2024/01/04 04:52:26;;;;;;;3.28;0.90;;;;;;;;;;5101278;28;20052;-73
2024/01/04 04:54:53;;;;;;;5.72;1.08;;;;;;;;;;5101693;28;20043;-75
2024/01/04 04:57:19;;;;;;;4.57;0.95;;;;;;;;;;5102204;28;20115;-76
2024/01/04 04:59:47;;;;;;;3.13;0.93;;;;;;;;;;5102359;28;20071;-76
2024/01/04 05:02:13;;;;;;;3.28;0.85;;;;;;;;;;5090444;28;20154;-75
2024/01/04 05:04:40;;;;;;;2.60;0.90;;;;;;;;;;5081701;28;20045;-69
2024/01/04 05:07:07;;;;;;;4.15;0.98;;;;;;;;;;5079990;28;20645;-72
2024/01/04 05:09:33;;;;;;;3.45;0.80;;;;;;;;;;5080377;28;20086;-72
2024/01/04 05:12:00;;;;;;;2.65;0.82;;;;;;;;;;5081524;28;20048;-83
2024/01/04 05:14:27;;;;;;;3.55;0.80;;;;;;;;;;5081289;28;20044;-82
2024/01/04 05:16:54;;;;;;;7.07;1.13;;;;;;;;;;5081320;28;20049;-83
2024/01/04 05:19:21;;;;;;;3.35;1.10;;;;;;;;;;5080872;28;20058;-74
2024/01/04 05:21:48;;;;;;;5.43;2.22;;;;;;;;;;5095545;28;20043;-73
2024/01/04 05:24:15;;;;;;;7.18;2.30;;;;;;;;;;5101075;28;20110;-77
2024/01/04 05:26:42;;;;;;;9.20;3.38;;;;;;;;;;5097656;28;20224;-74
2024/01/04 05:29:09;;;;;;;8.10;3.35;;;;;;;;;;5101235;28;20040;-76
2024/01/04 05:31:36;;;;;;;7.53;2.83;;;;;;;;;;5099884;28;20044;-70
2024/01/04 05:34:03;;;;;;;7.20;2.25;;;;;;;;;;5100326;28;20043;-72
2024/01/04 05:36:30;;;;;;;6.80;2.10;;;;;;;;;;5100596;28;20135;-74
2024/01/04 05:38:57;;;;;;;3.60;1.30;;;;;;;;;;5099825;28;20055;-73
2024/01/04 05:41:23;;;;;;;5.05;1.48;;;;;;;;;;5099983;28;20043;-70
2024/01/04 05:43:50;;;;;;;3.05;1.40;;;;;;;;;;5100239;28;20112;-77
2024/01/04 05:46:17;;;;;;;8.10;2.10;;;;;;;;;;5100314;28;20086;-71
2024/01/04 05:48:44;;;;;;;7.88;2.08;;;;;;;;;;5081889;28;20044;-70
2024/01/04 05:51:11;;;;;;;4.45;1.65;;;;;;;;;;5099232;28;20070;-69
2024/01/04 05:53:38;;;;;;;4.82;1.60;;;;;;;;;;5099702;28;20048;-70
2024/01/04 05:56:05;;;;;;;5.72;1.55;;;;;;;;;;5099812;28;20089;-69
2024/01/04 05:58:31;;;;;;;6.00;1.98;;;;;;;;;;5081957;28;20304;-70
2024/01/04 06:00:58;;;;;;;4.68;1.40;;;;;;;;;;5099944;28;20063;-69
2024/01/04 06:03:25;;;;;;;4.32;1.38;;;;;;;;;;5120017;28;20053;-69
2024/01/04 06:05:52;;;;;;;3.90;1.50;;;;;;;;;;5120995;28;20051;-70
2024/01/04 06:08:19;;;;;;;4.40;1.42;;;;;;;;;;5121484;28;20047;-71
2024/01/04 06:10:45;;;;;;;3.58;1.10;;;;;;;;;;5121029;28;20313;-69
2024/01/04 06:13:12;;;;;;;4.63;1.48;;;;;;;;;;5121585;28;20067;-71
2024/01/04 06:15:39;;;;;;;4.25;1.20;;;;;;;;;;5120492;28;20051;-75
2024/01/04 06:18:07;;;;;;;6.65;1.40;;;;;;;;;;5120202;28;20051;-69
2024/01/04 06:20:35;;;;;;;7.30;1.60;;;;;;;;;;5120512;28;20051;-70
2024/01/04 06:23:02;;;;;;;4.60;1.33;;;;;;;;;;5119720;28;20039;-71
2024/01/04 06:25:29;;;;;;;3.58;1.20;;;;;;;;;;5119561;28;20377;-73
2024/01/04 06:27:56;;;;;;;3.22;1.40;;;;;;;;;;5119428;28;20114;-75
2024/01/04 06:30:24;;;;;;;4.43;1.63;;;;;;;;;;5119749;28;20062;-73
2024/01/04 06:32:52;;;;;;;7.22;1.65;;;;;;;;;;5119686;28;20063;-69
2024/01/04 06:35:19;;;;;;;4.28;1.30;;;;;;;;;;5119738;28;20067;-70
2024/01/04 06:37:46;;;;;;;4.13;1.35;;;;;;;;;;5102010;28;20096;-70
2024/01/04 06:40:13;;;;;;;4.93;1.33;;;;;;;;;;5119579;28;20119;-69
2024/01/04 06:42:42;;;;;;;5.32;1.45;;;;;;;;;;5119599;28;20052;-70
2024/01/04 06:45:08;;;;;;;6.43;1.92;;;;;;;;;;5119678;28;20060;-70
2024/01/04 06:47:35;;;;;;;9.32;1.70;;;;;;;;;;5119902;28;20048;-69
2024/01/04 06:50:03;;;;;;;5.40;1.58;;;;;;;;;;5120481;28;20044;-71
2024/01/04 06:52:43;;;;;;;5.53;1.50;;;;;;;;;;5119639;28;20111;-69
2024/01/04 06:55:10;;;;;;;4.38;1.45;;;;;;;;;;5124774;28;20047;-70
2024/01/04 06:57:37;;;;;;;3.72;1.80;;;;;;;;;;5124927;28;20116;-75
2024/01/04 07:00:05;;;;;;;3.42;1.15;;;;;;;;;;5125081;28;20048;-70
2024/01/04 07:02:35;;;;;;;4.78;1.70;;;;;;;;;;5112233;28;20434;-71
2024/01/04 07:05:03;;;;;;;6.72;1.50;;;;;;;;;;5104637;28;20044;-69
2024/01/04 07:07:30;;;;;;;5.05;1.40;;;;;;;;;;5104215;28;20236;-79
2024/01/04 07:09:57;;;;;;;3.08;1.35;;;;;;;;;;5104119;28;20082;-72
2024/01/04 07:12:25;;;;;;;3.45;1.17;;;;;;;;;;5104388;28;20048;-70
2024/01/04 07:14:53;;;;;;;3.13;1.17;;;;;;;;;;5104457;28;20090;-77
2024/01/04 07:17:23;;;;;;;4.28;1.30;;;;;;;;;;5104352;28;20189;-79
2024/01/04 07:19:52;;;;;;;4.93;1.40;;;;;;;;;;5104073;28;20320;-78
2024/01/04 07:22:20;;;;;;;4.18;1.38;;;;;;;;;;5086260;28;20051;-70
2024/01/04 07:24:47;;;;;;;6.53;1.48;;;;;;;;;;5085801;28;20071;-78
2024/01/04 07:27:13;;;;;;;3.25;1.40;;;;;;;;;;5104320;28;20051;-71
2024/01/04 07:29:40;;;;;;;4.53;1.33;;;;;;;;;;5104256;28;20050;-71
2024/01/04 07:32:07;;;;;;;5.15;1.63;;;;;;;;;;5102773;28;20047;-73
2024/01/04 07:34:38;;;;;;;5.72;1.55;;;;;;;;;;5103186;28;20082;-71
2024/01/04 07:37:05;;;;;;;6.72;1.80;;;;;;;;;;5102934;28;20121;-74
2024/01/04 07:39:33;;;;;;;5.82;1.55;;;;;;;;;;5102964;28;20324;-74
2024/01/04 07:41:59;;;;;;;5.65;1.70;;;;;;;;;;5102969;28;20047;-82
2024/01/04 07:44:26;;;;;;;5.78;1.65;;;;;;;;;;5085228;28;20044;-70
2024/01/04 07:46:53;;;;;;;3.00;1.45;;;;;;;;;;5103271;28;20046;-73
2024/01/04 07:49:20;;;;;;;5.85;1.60;;;;;;;;;;5103079;28;20044;-75
2024/01/04 07:51:48;;;;;;;5.75;1.50;;;;;;;;;;5102587;28;20055;-72
2024/01/04 07:54:15;;;;;;;5.03;1.40;;;;;;;;;;5097244;28;20055;-70
2024/01/04 07:56:42;;;;;;;7.88;1.63;;;;;;;;;;5094902;28;20080;-70
2024/01/04 07:59:09;;;;;;;5.97;1.65;;;;;;;;;;5097235;28;20048;-70
2024/01/04 08:01:36;;;;;;;4.22;1.50;;;;;;;;;;5100450;28;20486;-71
2024/01/04 08:04:04;;;;;;;5.32;1.30;;;;;;;;;;5112647;28;20055;-69
2024/01/04 08:06:31;;;;;;;5.93;1.50;;;;;;;;;;5113068;28;20142;-73
2024/01/04 08:08:58;;;;;;;3.70;1.80;;;;;;;;;;5112744;28;20121;-70
2024/01/04 08:11:25;;;;;;;3.08;1.40;;;;;;;;;;5112378;28;20086;-74
2024/01/04 08:13:52;;;;;;;3.65;1.55;;;;;;;;;;5112011;28;20113;-71
2024/01/04 08:16:20;;;;;;;5.40;1.73;;;;;;;;;;5094264;28;20054;-69
2024/01/04 08:18:47;;;;;;;5.22;1.50;;;;;;;;;;5121569;28;20053;-72
2024/01/04 08:21:14;;;;;;;6.82;1.70;;;;;;;;;;5123254;28;20328;-74
2024/01/04 08:23:42;;;;;;;6.20;1.77;;;;;;;;;;5121391;28;20384;-70
2024/01/04 08:26:10;;;;;;;10.40;2.10;;;;;;;;;;5114715;28;20127;-71
2024/01/04 08:28:38;;;;;;;4.85;1.67;;;;;;;;;;5113266;28;20054;-71
2024/01/04 08:31:05;;;;;;;6.13;1.90;;;;;;;;;;5112122;28;20044;-70
2024/01/04 08:33:32;;;;;;;4.22;1.42;;;;;;;;;;5111381;28;20051;-74
2024/01/04 08:35:59;;;;;;;6.90;1.88;;;;;;;;;;5111937;28;20039;-73
2024/01/04 08:38:26;;;;;;;4.35;1.35;;;;;;;;;;5111823;28;20050;-74
2024/01/04 08:40:53;;;;;;;8.10;1.90;;;;;;;;;;5096044;28;20605;-74
2024/01/04 08:43:20;;;;;;;4.43;1.42;;;;;;;;;;5090930;28;20135;-75
2024/01/04 08:45:48;;;;;;;6.20;1.77;;;;;;;;;;5090973;28;20600;-73
2024/01/04 08:48:15;;;;;;;8.80;2.78;;;;;;;;;;5092384;28;20051;-76
2024/01/04 08:50:42;;;;;;;7.55;1.83;;;;;;;;;;5092624;28;20048;-78
2024/01/04 08:53:10;;;;;;;4.45;1.70;;;;;;;;;;5092354;28;20052;-71
2024/01/04 08:55:36;;;;;;;3.08;1.33;;;;;;;;;;5071611;28;20054;-78
2024/01/04 08:58:08;;;;;;;8.18;2.05;;;;;;;;;;5089819;28;20089;-76
2024/01/04 09:00:36;;;;;;;7.07;1.77;;;;;;;;;;5092877;28;20126;-77
2024/01/04 09:03:04;;;;;;;4.93;1.63;;;;;;;;;;5088161;28;20058;-78
2024/01/04 09:05:31;;;;;;;6.75;1.38;;;;;;;;;;5111235;28;20044;-78
2024/01/04 09:07:58;;;;;;;4.45;1.20;;;;;;;;;;5110828;28;20048;-77
2024/01/04 09:10:25;;;;;;;5.35;1.40;;;;;;;;;;5110818;28;20087;-80
2024/01/04 09:12:51;;;;;;;3.38;1.25;;;;;;;;;;5100275;28;20232;-78
2024/01/04 09:15:18;;;;;;;6.97;1.52;;;;;;;;;;5099513;28;20044;-76
2024/01/04 09:17:45;;;;;;;4.95;1.25;;;;;;;;;;5091331;28;20048;-76
2024/01/04 09:20:13;;;;;;;7.00;1.30;;;;;;;;;;5077209;28;20044;-74
2024/01/04 09:22:40;;;;;;;3.38;1.30;;;;;;;;;;5092147;28;20052;-80
2024/01/04 09:25:07;;;;;;;3.67;1.30;;;;;;;;;;5090004;28;20048;-77
2024/01/04 09:27:34;;;;;;;4.90;1.20;;;;;;;;;;5088445;28;20557;-77
2024/01/04 09:30:01;;;;;;;5.68;1.60;;;;;;;;;;5088726;28;20044;-74
2024/01/04 09:32:29;;;;;;;5.18;1.42;;;;;;;;;;5092825;28;20044;-75
2024/01/04 09:34:56;;;;;;;4.10;1.20;;;;;;;;;;5097248;28;20055;-73
2024/01/04 09:37:23;;;;;;;3.58;1.17;;;;;;;;;;5094979;28;20295;-74
2024/01/04 09:39:53;;;;;;;4.72;1.27;;;;;;;;;;5099421;28;20046;-74
2024/01/04 09:42:23;;;;;;;5.28;1.48;;;;;;;;;;5097199;28;20044;-74
2024/01/04 09:44:53;;;;;;;7.07;1.98;;;;;;;;;;5089671;28;20109;-74
2024/01/04 09:47:23;;;;;;;5.30;1.63;;;;;;;;;;5093132;28;20097;-73
2024/01/04 09:49:51;;;;;;;5.93;1.60;;;;;;;;;;5093240;28;20043;-74
2024/01/04 09:52:21;;;;;;;4.38;1.40;;;;;;;;;;5094207;28;20051;-75
2024/01/04 09:54:51;;;;;;;3.83;1.37;;;;;;;;;;5089388;28;20054;-74
2024/01/04 09:57:19;;;;;;;8.00;1.48;;;;;;;;;;5090689;28;20040;-74
2024/01/04 09:59:46;;;;;;;4.70;1.20;;;;;;;;;;5089554;28;20054;-74
2024/01/04 10:02:16;;;;;;;7.07;1.70;;;;;;;;;;5096706;28;20499;-75
2024/01/04 10:04:44;;;;;;;5.45;1.73;;;;;;;;;;5110201;28;20053;-74
2024/01/04 10:07:19;;;;;;;5.13;1.30;;;;;;;;;;5120799;28;20044;-73
2024/01/04 10:10:04;;;;;;;4.68;1.40;;;;;;;;;;5119333;28;20321;-80
2024/01/04 10:12:32;;;;;;;6.75;1.65;;;;;;;;;;5120428;28;20047;-77
2024/01/04 10:14:59;;;;;;;6.53;1.75;;;;;;;;;;5120872;28;20082;-75
2024/01/04 10:17:26;;;;;;;4.15;1.40;;;;;;;;;;5116658;28;20414;-73
2024/01/04 10:19:53;;;;;;;5.97;1.38;;;;;;;;;;5110378;28;20055;-72
2024/01/04 10:22:22;;;;;;;7.82;1.55;;;;;;;;;;5090400;28;20040;-74
2024/01/04 10:24:51;;;;;;;6.53;1.60;;;;;;;;;;5091970;28;20051;-74
2024/01/04 10:27:18;;;;;;;9.95;1.58;;;;;;;;;;5090398;28;20062;-73
2024/01/04 10:29:48;;;;;;;5.38;2.17;;;;;;;;;;5094278;28;20048;-75
2024/01/04 10:32:15;;;;;;;4.43;1.33;;;;;;;;;;5093823;28;20131;-73
2024/01/04 10:34:42;;;;;;;6.88;1.80;;;;;;;;;;5093905;28;20048;-74
2024/01/04 10:37:15;;;;;;;4.60;1.58;;;;;;;;;;5093482;28;20131;-74
2024/01/04 10:39:45;;;;;;;6.60;1.55;;;;;;;;;;5093251;28;20159;-74
2024/01/04 10:42:13;;;;;;;4.22;1.60;;;;;;;;;;5075495;28;20503;-73
2024/01/04 10:44:45;;;;;;;4.50;1.35;;;;;;;;;;5093124;28;20044;-75
2024/01/04 10:47:14;;;;;;;4.63;1.45;;;;;;;;;;5075074;28;20055;-72
2024/01/04 10:49:44;;;;;;;3.33;1.10;;;;;;;;;;5101103;28;20054;-73
2024/01/04 10:52:15;;;;;;;5.68;1.50;;;;;;;;;;5103398;28;20333;-73
2024/01/04 10:54:42;;;;;;;4.95;1.40;;;;;;;;;;5094757;28;20048;-75
2024/01/04 10:57:11;;;;;;;7.30;1.58;;;;;;;;;;5092955;28;20052;-74
2024/01/04 10:59:39;;;;;;;5.57;1.85;;;;;;;;;;5092729;28;20434;-73
2024/01/04 11:02:10;;;;;;;6.57;0.95;;;;;;;;;;5090577;28;20072;-72
2024/01/04 11:04:38;;;;;;;7.30;1.02;;;;;;;;;;5072474;28;20110;-72
2024/01/04 11:07:05;;;;;;;4.90;1.48;;;;;;;;;;5072864;28;20063;-72
2024/01/04 11:09:34;;;;;;;7.05;1.10;;;;;;;;;;5076803;28;20352;-71
2024/01/04 11:12:02;;;;;;;6.65;1.40;;;;;;;;;;5084330;28;20051;-72
2024/01/04 11:14:29;;;;;;;5.65;1.00;;;;;;;;;;5082453;28;20055;-72
2024/01/04 11:17:32;;;;;;;4.20;1.48;;;;;;;;;;5082274;28;20076;-70
2024/01/04 11:20:10;;;;;;;4.32;1.05;;;;;;;;;;5083261;28;20113;-72
2024/01/04 11:22:56;;;;;;;7.90;1.00;;;;;;;;;;5103526;28;20328;-71
2024/01/04 11:25:46;;;;;;;6.68;0.88;;;;;;;;;;5104038;28;20054;-76
2024/01/04 11:28:13;;;;;;;4.13;0.93;;;;;;;;;;5104400;28;20032;-72
2024/01/04 11:30:51;;;;;;;4.05;1.05;;;;;;;;;;5103916;28;20044;-73
2024/01/04 11:33:21;;;;;;;2.60;0.70;;;;;;;;;;5102775;28;20316;-73
2024/01/04 11:35:51;;;;;;;3.40;1.55;;;;;;;;;;5102928;28;20055;-73
2024/01/04 11:38:24;;;;;;;6.03;1.13;;;;;;;;;;5103085;28;20059;-72
2024/01/04 11:40:51;;;;;;;6.05;1.10;;;;;;;;;;5102316;28;20229;-70
2024/01/04 11:43:18;;;;;;;6.00;1.40;;;;;;;;;;5103253;28;20050;-72
2024/01/04 11:45:46;;;;;;;7.13;1.30;;;;;;;;;;5103183;28;20048;-69
2024/01/04 11:48:13;;;;;;;3.03;0.85;;;;;;;;;;5103637;28;20328;-75
2024/01/04 11:50:50;;;;;;;5.45;0.93;;;;;;;;;;5102387;28;20228;-69
2024/01/04 11:53:18;;;;;;;6.38;1.20;;;;;;;;;;5103156;28;20048;-72
2024/01/04 11:55:45;;;;;;;4.68;0.88;;;;;;;;;;5103300;28;20351;-73
2024/01/04 11:58:13;;;;;;;5.07;1.00;;;;;;;;;;5085603;28;20043;-70
2024/01/04 12:00:48;;;;;;;4.38;1.00;;;;;;;;;;5103298;28;20044;-75
2024/01/04 12:03:16;;;;;;;7.50;1.15;;;;;;;;;;5101721;28;20040;-72
2024/01/04 12:05:45;;;;;;;3.60;0.82;;;;;;;;;;5101429;28;20046;-72
2024/01/04 12:08:31;;;;;;;3.58;0.77;;;;;;;;;;5099674;28;20040;-75
2024/01/04 12:11:00;;;;;;;4.25;0.77;;;;;;;;;;5101070;28;20059;-74
2024/01/04 12:13:27;;;;;;;5.93;1.10;;;;;;;;;;5100625;28;20040;-73
2024/01/04 12:15:54;;;;;;;2.45;0.60;;;;;;;;;;5100129;28;20048;-75
2024/01/04 12:18:21;;;;;;;5.47;0.80;;;;;;;;;;5080839;28;20055;-74
2024/01/04 12:20:53;;;;;;;5.60;1.00;;;;;;;;;;5081727;28;20076;-75
2024/01/04 12:23:32;;;;;;;4.07;1.17;;;;;;;;;;5082608;28;20351;-78
2024/01/04 12:26:00;;;;;;;3.33;0.80;;;;;;;;;;5081747;28;20107;-75
2024/01/04 12:28:27;;;;;;;4.22;0.77;;;;;;;;;;5082421;28;20052;-74
2024/01/04 12:30:54;;;;;;;2.15;0.60;;;;;;;;;;5082618;28;20040;-83
2024/01/04 12:33:21;;;;;;;3.60;0.80;;;;;;;;;;5081137;28;20285;-77
2024/01/04 12:35:59;;;;;;;3.67;0.88;;;;;;;;;;5081791;28;20055;-82
2024/01/04 12:38:28;;;;;;;4.18;0.88;;;;;;;;;;5082345;28;20052;-85
2024/01/04 12:40:55;;;;;;;3.20;0.90;;;;;;;;;;5082068;28;20286;-77
2024/01/04 12:43:23;;;;;;;4.63;1.15;;;;;;;;;;5080502;28;20044;-78
2024/01/04 12:46:04;;;;;;;4.72;0.90;;;;;;;;;;5081369;28;20386;-80
2024/01/04 12:48:31;;;;;;;6.10;0.75;;;;;;;;;;5080165;28;20090;-71
2024/01/04 12:51:08;;;;;;;4.82;0.85;;;;;;;;;;5080211;28;20244;-72
2024/01/04 12:53:35;;;;;;;2.65;0.80;;;;;;;;;;5081341;28;20071;-73
2024/01/04 12:56:02;;;;;;;4.18;0.90;;;;;;;;;;5081478;28;20108;-72
2024/01/04 12:58:29;;;;;;;2.72;0.80;;;;;;;;;;5080844;28;20098;-74
2024/01/04 13:00:56;;;;;;;2.10;0.60;;;;;;;;;;5081488;28;20048;-70
2024/01/04 13:03:23;;;;;;;4.40;0.63;;;;;;;;;;5094374;28;20465;-73
2024/01/04 13:05:50;;;;;;;4.60;0.80;;;;;;;;;;5121325;28;20043;-72
2024/01/04 13:08:18;;;;;;;4.38;0.90;;;;;;;;;;5121693;28;20050;-74
2024/01/04 13:10:45;;;;;;;4.95;1.00;;;;;;;;;;5121694;28;20047;-74
2024/01/04 13:13:13;;;;;;;2.75;0.95;;;;;;;;;;5122218;28;20293;-77
2024/01/04 13:15:40;;;;;;;2.25;0.88;;;;;;;;;;5122400;28;20047;-75
2024/01/04 13:18:07;;;;;;;3.22;0.90;;;;;;;;;;5122283;28;20044;-70
2024/01/04 13:20:34;;;;;;;2.72;1.00;;;;;;;;;;5122308;28;20075;-72
2024/01/04 13:23:01;;;;;;;4.63;1.05;;;;;;;;;;5121710;28;20134;-73
2024/01/04 13:25:28;;;;;;;6.60;1.42;;;;;;;;;;5122018;28;20047;-72
2024/01/04 13:27:54;;;;;;;5.25;1.25;;;;;;;;;;5122154;28;20608;-74
2024/01/04 13:30:23;;;;;;;4.53;1.10;;;;;;;;;;5121432;28;20051;-72
2024/01/04 13:32:50;;;;;;;2.00;0.70;;;;;;;;;;5121740;28;20044;-77
2024/01/04 13:35:17;;;;;;;5.10;1.10;;;;;;;;;;5121747;28;20106;-75
2024/01/04 13:37:43;;;;;;;5.05;0.80;;;;;;;;;;5121741;28;20430;-73
2024/01/04 13:40:11;;;;;;;3.05;0.88;;;;;;;;;;5121781;28;20043;-70
2024/01/04 13:42:38;;;;;;;4.35;1.17;;;;;;;;;;5121290;28;20083;-71
2024/01/04 13:45:05;;;;;;;3.83;1.02;;;;;;;;;;5120391;28;20078;-69
2024/01/04 13:47:32;;;;;;;2.58;0.75;;;;;;;;;;5121669;28;20041;-72
2024/01/04 13:49:59;;;;;;;6.43;1.10;;;;;;;;;;5121031;28;20111;-70
2024/01/04 13:52:26;;;;;;;8.20;1.67;;;;;;;;;;5121014;28;20043;-71
2024/01/04 13:54:54;;;;;;;7.50;1.00;;;;;;;;;;5120681;28;20071;-73
2024/01/04 13:57:22;;;;;;;2.70;1.00;;;;;;;;;;5121288;28;20044;-70
2024/01/04 13:59:49;;;;;;;12.82;1.00;;;;;;;;;;5120760;28;20047;-70
2024/01/04 14:02:17;;;;;;;3.40;0.70;;;;;;;;;;5118602;28;20040;-72
2024/01/04 14:04:43;;;;;;;4.35;1.02;;;;;;;;;;5100409;28;20098;-70
2024/01/04 14:07:17;;;;;;;3.28;0.90;;;;;;;;;;5082534;28;20085;-76
2024/01/04 14:09:43;;;;;;;3.20;0.73;;;;;;;;;;5100943;28;20107;-73
2024/01/04 14:12:12;;;;;;;2.95;0.93;;;;;;;;;;5082887;28;20046;-73
2024/01/04 14:14:39;;;;;;;4.38;1.00;;;;;;;;;;5099980;28;20040;-71
2024/01/04 14:17:05;;;;;;;4.72;1.00;;;;;;;;;;5101241;28;20111;-70
2024/01/04 14:19:32;;;;;;;6.70;1.00;;;;;;;;;;5100313;28;20055;-71
2024/01/04 14:21:59;;;;;;;6.35;1.00;;;;;;;;;;5100172;28;20058;-70
2024/01/04 14:24:26;;;;;;;4.47;0.80;;;;;;;;;;5099684;28;20052;-71
2024/01/04 14:26:52;;;;;;;3.42;0.80;;;;;;;;;;5100375;28;20047;-73
2024/01/04 14:29:19;;;;;;;5.47;1.40;;;;;;;;;;5100513;28;20040;-72
2024/01/04 14:31:46;;;;;;;3.53;0.90;;;;;;;;;;5100981;28;20120;-72
2024/01/04 14:34:13;;;;;;;3.92;0.82;;;;;;;;;;5100751;28;20240;-74
2024/01/04 14:36:42;;;;;;;4.68;1.00;;;;;;;;;;5100542;28;20119;-72
2024/01/04 14:39:18;;;;;;;3.60;0.90;;;;;;;;;;5100486;28;20044;-73
2024/01/04 14:41:45;;;;;;;2.22;0.65;;;;;;;;;;5082673;28;20046;-73
2024/01/04 14:44:12;;;;;;;6.53;1.17;;;;;;;;;;5083031;28;20189;-74
2024/01/04 14:46:38;;;;;;;2.85;0.90;;;;;;;;;;5100621;28;20051;-73